createdAt,value
2022-11-24T00:01:31.276Z,97.09
2022-11-24T00:04:04.549Z,97.45
2022-11-24T00:06:33.769Z,98.05
2022-11-24T00:09:02.331Z,97.57
2022-11-24T00:11:32.069Z,96.29
2022-11-24T00:13:59.926Z,97.45
2022-11-24T00:16:33.234Z,96.56
2022-11-24T00:19:02.062Z,93.94
2022-11-24T00:21:31.173Z,93.55
2022-11-24T00:24:02.103Z,94.68
2022-11-24T00:26:31.273Z,95.08
2022-11-24T00:29:03.079Z,94.93
2022-11-24T00:31:36.004Z,92.55
2022-11-24T00:34:06.371Z,93.44
2022-11-24T00:36:35.763Z,93.34
2022-11-24T00:39:06.249Z,93.51
2022-11-24T00:41:34.145Z,94.77
2022-11-24T00:44:02.139Z,93.71
2022-11-24T00:46:29.841Z,94.18
2022-11-24T00:48:58.413Z,94.85
2022-11-24T00:51:30.067Z,94.87
2022-11-24T00:54:01.305Z,94.98
2022-11-24T00:56:32.492Z,93.71
2022-11-24T00:58:59.383Z,94.06
2022-11-24T01:01:30.426Z,94.78
2022-11-24T01:04:01.536Z,93.34
2022-11-24T01:06:29.821Z,93.29
2022-11-24T01:08:58.161Z,95.12
2022-11-24T01:11:51.915Z,93.52
2022-11-24T01:14:19.851Z,94.49
2022-11-24T01:16:46.852Z,93.38
2022-11-24T01:19:13.972Z,94.08
2022-11-24T01:21:40.963Z,94.40
2022-11-24T01:24:08.137Z,94.21
2022-11-24T01:26:35.043Z,92.73
2022-11-24T01:29:03.533Z,92.46
2022-11-24T01:31:30.985Z,93.27
2022-11-24T01:33:58.436Z,94.10
2022-11-24T01:36:25.427Z,93.62
2022-11-24T01:38:52.282Z,93.43
2022-11-24T01:41:22.985Z,93.70
2022-11-24T01:43:51.109Z,95.29
2022-11-24T01:46:42.535Z,95.87
2022-11-24T01:49:09.442Z,95.67
2022-11-24T01:51:39.683Z,93.79
2022-11-24T01:54:11.676Z,94.55
2022-11-24T01:56:43.155Z,95.06
2022-11-24T01:59:14.936Z,96.18
2022-11-24T02:01:42.270Z,97.00
2022-11-24T02:04:13.591Z,96.17
2022-11-24T02:06:44.258Z,95.79
2022-11-24T02:09:23.464Z,96.66
2022-11-24T02:11:54.749Z,97.04
2022-11-24T02:14:25.301Z,96.06
2022-11-24T02:16:53.662Z,96.68
2022-11-24T02:19:27.053Z,95.97
2022-11-24T02:21:55.661Z,95.53
2022-11-24T02:24:33.260Z,97.02
2022-11-24T02:27:00.441Z,97.33
2022-11-24T02:29:27.741Z,96.92
2022-11-24T02:32:03.362Z,98.21
2022-11-24T02:34:30.503Z,97.28
2022-11-24T02:36:57.585Z,97.18
2022-11-24T02:39:24.692Z,97.20
2022-11-24T02:41:59.522Z,96.39
2022-11-24T02:44:33.574Z,95.82
2022-11-24T02:47:09.976Z,97.01
2022-11-24T02:49:37.440Z,96.70
2022-11-24T02:52:04.792Z,97.69
2022-11-24T02:54:32.379Z,97.12
2022-11-24T02:57:00.167Z,98.05
2022-11-24T02:59:28.357Z,97.10
2022-11-24T03:01:55.668Z,98.58
2022-11-24T03:04:23.072Z,99.37
2022-11-24T03:06:50.232Z,100.00
2022-11-24T03:09:17.253Z,100.00
2022-11-24T03:11:44.581Z,99.62
2022-11-24T03:14:11.585Z,99.67
2022-11-24T03:16:39.198Z,100.00
2022-11-24T03:19:06.342Z,99.43
2022-11-24T03:21:33.366Z,100.00
2022-11-24T03:24:00.679Z,100.00
2022-11-24T03:26:28.154Z,99.10
2022-11-24T03:28:56.402Z,98.31
2022-11-24T03:31:24.564Z,98.48
2022-11-24T03:33:52.053Z,98.58
2022-11-24T03:36:19.075Z,98.97
2022-11-24T03:38:45.934Z,98.42
2022-11-24T03:41:13.082Z,98.18
2022-11-24T03:43:43.802Z,99.17
2022-11-24T03:46:12.543Z,98.98
2022-11-24T03:48:39.821Z,99.17
2022-11-24T03:51:07.774Z,98.78
2022-11-24T03:53:35.635Z,99.37
2022-11-24T03:56:03.003Z,98.67
2022-11-24T03:58:30.785Z,98.64
2022-11-24T04:00:58.475Z,99.12
2022-11-24T04:36:42.883Z,92.96
2022-11-24T04:39:23.425Z,92.73
2022-11-24T04:41:54.073Z,93.33
2022-11-24T04:44:21.098Z,93.36
2022-11-24T04:46:48.434Z,93.04
2022-11-24T04:49:15.618Z,92.77
2022-11-24T04:51:42.956Z,93.30
2022-11-24T04:54:12.983Z,93.51
2022-11-24T04:56:41.255Z,93.53
2022-11-24T04:59:08.881Z,92.95
2022-11-24T05:01:36.447Z,92.93
2022-11-24T05:04:03.606Z,92.71
2022-11-24T05:06:33.604Z,92.32
2022-11-24T05:09:00.595Z,92.12
2022-11-24T05:11:27.786Z,92.95
2022-11-24T05:13:54.789Z,92.64
2022-11-24T05:16:22.267Z,92.40
2022-11-24T05:18:49.800Z,91.96
2022-11-24T05:21:16.961Z,94.31
2022-11-24T05:23:43.988Z,92.30
2022-11-24T05:26:11.067Z,92.52
2022-11-24T05:28:38.197Z,92.82
2022-11-24T05:31:05.832Z,93.85
2022-11-24T05:33:33.735Z,94.25
2022-11-24T05:36:02.784Z,94.62
2022-11-24T05:38:30.741Z,94.98
2022-11-24T05:41:02.665Z,94.46
2022-11-24T05:43:29.714Z,94.37
2022-11-24T05:46:00.834Z,94.75
2022-11-24T05:48:27.892Z,94.98
2022-11-24T05:50:56.367Z,95.23
2022-11-24T06:04:04.186Z,93.07
2022-11-24T06:06:55.895Z,94.02
2022-11-24T06:09:23.105Z,93.91
2022-11-24T06:11:50.476Z,93.79
2022-11-24T06:14:20.266Z,93.12
2022-11-24T06:16:48.080Z,93.69
2022-11-24T06:19:16.650Z,94.08
2022-11-24T06:21:46.677Z,93.13
2022-11-24T06:24:28.886Z,92.41
2022-11-24T06:26:56.127Z,93.50
2022-11-24T06:29:25.926Z,93.24
2022-11-24T06:31:56.359Z,93.04
2022-11-24T06:34:23.462Z,93.29
2022-11-24T06:36:50.654Z,91.91
2022-11-24T06:39:29.805Z,92.22
2022-11-24T06:42:01.121Z,91.38
2022-11-24T06:44:31.249Z,91.56
2022-11-24T06:49:51.137Z,90.65
2022-11-24T06:52:38.164Z,91.09
2022-11-24T06:55:07.894Z,91.14
2022-11-24T06:57:35.963Z,91.02
2022-11-24T07:02:50.592Z,90.88
2022-11-24T07:05:21.222Z,90.20
2022-11-24T07:07:51.056Z,90.38
2022-11-24T07:10:18.972Z,89.70
2022-11-24T07:12:50.486Z,88.84
2022-11-24T07:15:21.785Z,89.34
2022-11-24T07:17:48.804Z,89.67
2022-11-24T07:20:16.548Z,88.85
2022-11-24T07:22:44.113Z,89.33
2022-11-24T07:25:18.994Z,89.39
2022-11-24T07:27:47.184Z,88.88
2022-11-24T07:30:21.536Z,88.42
2022-11-24T07:32:50.093Z,87.96
2022-11-24T07:35:20.424Z,86.75
2022-11-24T07:37:53.306Z,87.63
2022-11-24T07:40:23.515Z,85.78
2022-11-24T07:42:53.854Z,86.61
2022-11-24T07:45:21.853Z,86.08
2022-11-24T07:47:49.426Z,86.27
2022-11-24T07:50:19.266Z,85.25
2022-11-24T07:52:46.384Z,85.30
2022-11-24T07:55:14.938Z,84.37
2022-11-24T07:57:42.987Z,83.89
2022-11-24T08:00:11.623Z,83.32
2022-11-24T08:02:38.833Z,84.96
2022-11-24T08:05:08.941Z,84.14
2022-11-24T08:07:38.405Z,86.10
2022-11-24T08:10:06.144Z,85.30
2022-11-24T08:12:33.592Z,84.85
2022-11-24T08:15:06.595Z,84.56
2022-11-24T08:17:38.029Z,85.59
2022-11-24T08:20:07.005Z,84.41
2022-11-24T08:22:34.381Z,85.06
2022-11-24T08:25:01.230Z,84.71
2022-11-24T08:27:28.347Z,85.07
2022-11-24T08:29:55.286Z,84.52
2022-11-24T08:32:23.360Z,84.54
2022-11-24T08:34:52.215Z,84.21
2022-11-24T08:37:25.335Z,83.19
2022-11-24T08:39:54.087Z,84.06
2022-11-24T08:42:21.149Z,83.03
2022-11-24T08:44:48.190Z,83.54
2022-11-24T08:47:17.995Z,83.67
2022-11-24T08:49:45.297Z,83.95
2022-11-24T08:52:12.089Z,84.26
2022-11-24T08:54:39.211Z,84.58
2022-11-24T08:57:05.987Z,84.38
2022-11-24T08:59:33.943Z,83.72
2022-11-24T09:02:02.436Z,83.86
2022-11-24T09:04:29.707Z,83.18
2022-11-24T09:06:56.636Z,82.26
2022-11-24T09:09:23.683Z,82.58
2022-11-24T09:11:50.466Z,82.43
2022-11-24T09:14:17.270Z,83.08
2022-11-24T09:16:45.800Z,83.40
2022-11-24T09:19:13.011Z,82.63
2022-11-24T09:21:43.530Z,83.09
2022-11-24T09:24:11.395Z,82.69
2022-11-24T09:26:50.807Z,83.78
2022-11-24T09:29:17.762Z,84.14
2022-11-24T09:31:45.170Z,84.17
2022-11-24T09:34:15.720Z,82.90
2022-11-24T09:36:44.077Z,81.01
2022-11-24T09:39:11.689Z,81.01
2022-11-24T09:41:48.995Z,82.37
2022-11-24T09:44:56.625Z,81.07
2022-11-24T09:47:48.121Z,81.41
2022-11-24T09:50:24.598Z,81.06
2022-11-24T09:53:09.556Z,79.69
2022-11-24T09:55:47.522Z,81.01
2022-11-24T09:58:40.996Z,80.57
2022-11-24T10:01:25.706Z,79.34
2022-11-24T10:03:54.125Z,79.18
2022-11-24T10:06:24.341Z,77.00
2022-11-24T10:09:36.587Z,77.42
2022-11-24T10:12:31.981Z,77.18
2022-11-24T10:15:17.165Z,75.79
2022-11-24T10:18:17.043Z,75.82
2022-11-24T10:21:30.987Z,74.76
2022-11-24T10:24:19.658Z,74.31
2022-11-24T10:26:57.123Z,74.67
2022-11-24T10:29:27.248Z,74.53
2022-11-24T10:31:56.774Z,75.74
2022-11-24T10:34:32.171Z,74.87
2022-11-24T10:37:03.452Z,73.80
2022-11-24T10:39:43.341Z,74.83
2022-11-24T10:42:16.914Z,75.42
2022-11-24T10:44:45.383Z,75.34
2022-11-24T10:47:20.278Z,74.23
2022-11-24T10:50:04.767Z,74.16
2022-11-24T10:52:40.165Z,74.12
2022-11-24T10:55:07.786Z,74.13
2022-11-24T10:57:40.668Z,74.46
2022-11-24T11:00:19.844Z,72.91
2022-11-24T11:02:48.943Z,74.15
2022-11-24T11:05:38.413Z,72.57
2022-11-24T11:08:14.679Z,71.66
2022-11-24T11:10:43.777Z,72.32
2022-11-24T11:13:32.572Z,73.55
2022-11-24T11:16:00.373Z,73.83
2022-11-24T11:18:34.208Z,73.07
2022-11-24T11:21:03.103Z,73.35
2022-11-24T11:23:34.341Z,72.28
2022-11-24T11:26:36.246Z,71.61
2022-11-24T11:35:14.429Z,71.95
2022-11-24T11:37:42.826Z,71.01
2022-11-24T11:40:25.242Z,70.34
2022-11-24T11:43:03.414Z,71.82
2022-11-24T11:45:40.412Z,71.47
2022-11-24T11:48:43.181Z,71.63
2022-11-24T11:51:26.161Z,71.65
2022-11-24T11:54:23.114Z,71.62
2022-11-24T11:57:06.111Z,71.77
2022-11-24T11:59:33.335Z,71.37
2022-11-24T12:02:30.745Z,69.79
2022-11-24T12:05:05.634Z,69.67
2022-11-24T12:07:39.577Z,69.53
2022-11-24T12:10:12.669Z,70.83
2022-11-24T12:13:13.925Z,70.95
2022-11-24T12:15:52.633Z,70.52
2022-11-24T12:18:57.501Z,70.92
2022-11-24T12:21:58.647Z,70.74
2022-11-24T12:24:52.234Z,71.19
2022-11-24T12:27:57.586Z,70.27
2022-11-24T12:30:24.954Z,71.02
2022-11-24T12:33:23.674Z,70.95
2022-11-24T12:36:03.808Z,71.14
2022-11-24T12:39:09.586Z,71.07
2022-11-24T12:42:21.566Z,70.25
2022-11-24T12:44:53.566Z,70.93
2022-11-24T12:47:29.334Z,71.92
2022-11-24T12:50:10.518Z,71.41
2022-11-24T12:52:46.887Z,72.12
2022-11-24T12:55:24.696Z,72.79
2022-11-24T12:58:10.852Z,70.88
2022-11-24T13:00:54.055Z,71.10
2022-11-24T13:03:48.562Z,72.11
2022-11-24T13:06:21.702Z,71.53
2022-11-24T13:08:49.321Z,72.89
2022-11-24T13:11:22.340Z,72.70
2022-11-24T13:14:31.983Z,73.00
2022-11-24T13:19:51.514Z,72.75
2022-11-24T13:22:26.041Z,73.90
2022-11-24T13:25:29.235Z,74.09
2022-11-24T13:28:01.612Z,74.21
2022-11-24T13:30:34.539Z,74.33
2022-11-24T13:33:29.731Z,74.76
2022-11-24T13:36:03.085Z,73.93
2022-11-24T13:38:53.522Z,73.96
2022-11-24T13:41:32.802Z,74.39
2022-11-24T13:44:17.654Z,74.69
2022-11-24T13:47:38.701Z,74.57
2022-11-24T13:50:23.652Z,75.03
2022-11-24T13:53:20.594Z,74.18
2022-11-24T13:55:59.722Z,72.47
2022-11-24T13:58:30.138Z,71.99
2022-11-24T14:01:07.508Z,71.90
2022-11-24T14:03:39.348Z,71.02
2022-11-24T14:06:06.803Z,71.11
2022-11-24T14:08:37.692Z,71.35
2022-11-24T14:11:14.824Z,70.93
2022-11-24T14:13:41.702Z,71.28
2022-11-24T14:16:21.391Z,71.40
2022-11-24T14:18:52.817Z,72.43
2022-11-24T14:21:26.003Z,71.68
2022-11-24T14:24:04.626Z,72.88
2022-11-24T14:26:35.769Z,71.48
2022-11-24T14:29:15.634Z,71.03
2022-11-24T14:31:44.166Z,71.54
2022-11-24T14:34:21.351Z,71.19
2022-11-24T14:36:50.013Z,72.31
2022-11-24T14:39:22.467Z,73.75
2022-11-24T14:42:04.207Z,72.89
2022-11-24T14:44:57.022Z,73.21
2022-11-24T14:47:43.862Z,72.89
2022-11-24T14:50:16.518Z,73.71
2022-11-24T14:52:47.302Z,73.80
2022-11-24T14:55:33.142Z,73.58
2022-11-24T14:58:00.705Z,72.92
2022-11-24T15:00:33.275Z,74.53
2022-11-24T15:03:03.193Z,74.33
2022-11-24T15:05:58.133Z,73.37
2022-11-24T15:08:28.819Z,73.83
2022-11-24T15:10:58.894Z,74.95
2022-11-24T15:13:26.503Z,77.19
2022-11-24T15:16:03.797Z,77.83
2022-11-24T15:18:43.545Z,76.88
2022-11-24T15:21:18.952Z,79.02
2022-11-24T15:24:18.113Z,78.32
2022-11-24T15:26:47.281Z,78.72
2022-11-24T15:29:14.336Z,80.20
2022-11-24T15:31:45.250Z,79.95
2022-11-24T15:34:16.662Z,78.73
2022-11-24T15:36:43.649Z,80.75
2022-11-24T15:39:10.577Z,79.49
2022-11-24T15:41:37.865Z,78.45
2022-11-24T15:44:04.994Z,78.65
2022-11-24T15:46:40.088Z,79.84
2022-11-24T15:49:07.448Z,79.34
2022-11-24T15:51:35.855Z,78.83
2022-11-24T15:54:08.410Z,78.80
2022-11-24T15:56:42.246Z,78.42
2022-11-24T15:59:20.732Z,79.21
2022-11-24T16:01:50.084Z,79.50
2022-11-24T16:04:17.601Z,79.49
2022-11-24T16:06:44.899Z,79.76
2022-11-24T16:09:17.638Z,78.41
2022-11-24T16:11:44.626Z,78.24
2022-11-24T16:14:11.620Z,79.00
2022-11-24T16:16:38.729Z,79.40
2022-11-24T16:19:05.736Z,79.90
2022-11-24T16:21:32.877Z,80.14
2022-11-24T16:23:59.663Z,81.10
2022-11-24T16:26:26.613Z,80.37
2022-11-24T16:28:53.546Z,80.69
2022-11-24T16:31:20.733Z,82.47
2022-11-24T16:33:47.732Z,80.71
2022-11-24T16:36:14.842Z,80.22
2022-11-24T16:38:42.073Z,80.07
2022-11-24T16:41:10.573Z,80.45
2022-11-24T16:43:41.108Z,80.38
2022-11-24T16:46:24.603Z,79.81
2022-11-24T16:48:53.756Z,80.88
2022-11-24T16:51:22.689Z,80.31
2022-11-24T16:53:57.441Z,79.92
2022-11-24T16:56:24.654Z,79.88
2022-11-24T16:58:51.532Z,81.04
2022-11-24T17:01:21.008Z,79.74
2022-11-24T17:03:48.420Z,79.57
2022-11-24T17:06:16.916Z,80.27
2022-11-24T17:08:45.877Z,80.54
2022-11-24T17:11:15.867Z,78.88
2022-11-24T17:13:43.208Z,78.62
2022-11-24T17:16:12.692Z,77.66
2022-11-24T17:18:40.150Z,77.52
2022-11-24T17:21:11.395Z,78.50
2022-11-24T17:23:38.505Z,79.70
2022-11-24T17:26:18.608Z,78.91
2022-11-24T17:28:45.641Z,78.61
2022-11-24T17:31:33.327Z,79.66
2022-11-24T17:34:01.066Z,77.96
2022-11-24T17:36:28.745Z,78.51
2022-11-24T17:38:55.595Z,82.22
2022-11-24T17:41:23.345Z,82.59
2022-11-24T17:43:51.212Z,83.63
2022-11-24T17:46:18.407Z,83.86
2022-11-24T17:48:46.936Z,84.54
2022-11-24T17:51:19.974Z,84.92
2022-11-24T17:53:49.544Z,85.32
2022-11-24T17:56:23.600Z,86.04
2022-11-24T17:58:55.071Z,85.14
2022-11-24T18:01:22.344Z,84.91
2022-11-24T18:03:53.384Z,85.49
2022-11-24T18:06:21.234Z,85.63
2022-11-24T18:08:48.143Z,84.67
2022-11-24T18:11:17.553Z,84.70
2022-11-24T18:14:01.410Z,84.53
2022-11-24T18:16:30.537Z,85.36
2022-11-24T18:19:15.075Z,84.76
2022-11-24T18:21:43.903Z,82.98
2022-11-24T18:24:12.223Z,83.41
2022-11-24T18:26:43.137Z,83.41
2022-11-24T18:29:11.610Z,83.30
2022-11-24T18:31:39.001Z,83.49
2022-11-24T18:34:06.631Z,81.21
2022-11-24T18:36:34.504Z,81.08
2022-11-24T18:39:05.614Z,81.21
2022-11-24T18:41:32.636Z,81.48
2022-11-24T18:44:03.152Z,81.63
2022-11-24T18:46:30.088Z,81.25
2022-11-24T18:48:56.979Z,82.21
2022-11-24T18:51:23.811Z,81.77
2022-11-24T18:53:58.409Z,82.97
2022-11-24T18:56:26.145Z,83.53
2022-11-24T18:58:54.373Z,83.32
2022-11-24T19:01:24.977Z,83.28
2022-11-24T19:03:56.380Z,82.90
2022-11-24T19:06:35.620Z,81.23
2022-11-24T19:09:08.361Z,81.76
2022-11-24T19:11:37.897Z,81.82
2022-11-24T19:14:06.301Z,83.25
2022-11-24T19:16:34.092Z,82.33
2022-11-24T19:19:05.070Z,81.97
2022-11-24T19:21:36.489Z,81.71
2022-11-24T19:24:05.794Z,81.92
2022-11-24T19:26:35.293Z,82.27
2022-11-24T19:29:03.219Z,80.59
2022-11-24T19:31:30.315Z,78.69
2022-11-24T19:33:58.927Z,78.35
2022-11-24T19:36:26.471Z,77.68
2022-11-24T19:38:55.496Z,76.13
2022-11-24T19:41:25.165Z,76.13
2022-11-24T19:43:55.102Z,75.83
2022-11-24T19:46:26.308Z,74.48
2022-11-24T19:48:57.342Z,74.79
2022-11-24T19:51:36.011Z,75.01
2022-11-24T19:54:04.200Z,75.84
2022-11-24T19:56:36.692Z,75.90
2022-11-24T19:59:05.373Z,76.96
2022-11-24T20:01:38.167Z,77.07
2022-11-24T20:04:08.289Z,77.65
2022-11-24T20:06:39.011Z,79.28
2022-11-24T20:09:08.396Z,79.35
2022-11-24T20:11:35.291Z,79.76
2022-11-24T20:14:02.577Z,79.58
2022-11-24T20:16:32.784Z,80.34
2022-11-24T20:19:02.093Z,81.17
2022-11-24T20:21:31.636Z,81.45
2022-11-24T20:24:07.233Z,82.08
2022-11-24T20:26:36.767Z,82.51
2022-11-24T20:29:04.701Z,83.39
2022-11-24T20:31:37.729Z,83.16
2022-11-24T20:34:06.574Z,83.11
2022-11-24T20:36:35.727Z,83.03
2022-11-24T20:39:05.449Z,83.71
2022-11-24T20:41:35.449Z,84.26
2022-11-24T20:44:07.120Z,83.66
2022-11-24T20:49:18.206Z,84.07
2022-11-24T21:04:49.704Z,84.13
2022-11-24T21:07:16.560Z,84.92
2022-11-24T21:09:43.426Z,84.57
2022-11-24T21:12:10.396Z,84.50
2022-11-24T21:14:37.449Z,83.82
2022-11-24T21:17:04.292Z,84.42
2022-11-24T21:19:31.756Z,84.18
2022-11-24T21:21:58.532Z,84.51
2022-11-24T21:24:25.454Z,84.49
2022-11-24T21:26:53.051Z,84.87
2022-11-24T21:29:23.515Z,84.63
2022-11-24T21:31:50.666Z,84.72
2022-11-24T21:42:22.893Z,85.58
2022-11-24T21:44:49.750Z,85.05
2022-11-24T21:49:51.800Z,86.30
2022-11-24T21:52:18.774Z,85.64
2022-11-24T21:54:45.813Z,86.00
2022-11-24T21:57:13.054Z,86.74
2022-11-24T21:59:40.032Z,86.29
2022-11-24T22:02:11.722Z,86.51
2022-11-24T22:18:46.022Z,87.97
2022-11-24T22:21:17.958Z,87.54
2022-11-24T22:23:45.174Z,86.94
2022-11-24T22:26:17.377Z,86.87
2022-11-24T22:28:45.577Z,86.57
2022-11-24T22:33:34.317Z,86.56
2022-11-24T22:36:02.046Z,87.34
2022-11-24T23:02:56.793Z,87.69
2022-11-24T23:05:23.717Z,88.84
2022-11-24T23:07:51.301Z,89.24
2022-11-24T23:10:18.512Z,89.43
2022-11-24T23:12:45.371Z,90.66
2022-11-24T23:15:12.286Z,90.64
2022-11-24T23:17:39.548Z,91.71
2022-11-24T23:20:07.457Z,91.61
2022-11-24T23:22:34.333Z,92.58
2022-11-24T23:25:01.564Z,93.47
